Time;durP1;ratioP1;P1;durP2;ratioP2;P2;SDS_P1;SDS_P2;PMS_P1;PMS_P2;Temp;Humidity;BMP_temperature;BMP_pressure;BME280_temperature;BME280_humidity;BME280_pressure;Samples;Min_cycle;Max_cycle;Signal;HPM_P1;HPM_P2
2021/08/06 00:02:04;;;;;;;2.67;1.43;;;;;;;16.00;75.16;98904.05;1735411;81;21742;-63
2021/08/06 00:04:30;;;;;;;1.95;1.77;;;;;;;15.96;75.13;98902.62;1740845;81;20903;-63
2021/08/06 00:06:57;;;;;;;1.27;1.17;;;;;;;15.93;75.32;98897.61;1736260;81;21504;-63
2021/08/06 00:09:24;;;;;;;3.23;1.53;;;;;;;15.87;75.13;98894.52;1732270;81;21477;-63
2021/08/06 00:11:57;;;;;;;2.30;1.57;;;;;;;15.80;75.21;98890.73;1734579;81;21087;-63
2021/08/06 00:14:18;;;;;;;5.35;1.75;;;;;;;15.70;75.26;98892.44;1731585;81;20932;-63
2021/08/06 00:16:45;;;;;;;4.27;1.40;;;;;;;15.63;75.38;98884.67;1733884;81;20936;-63
2021/08/06 00:19:12;;;;;;;2.27;1.40;;;;;;;15.58;75.48;98886.35;1735476;81;21439;-63
2021/08/06 00:21:38;;;;;;;4.63;1.60;;;;;;;15.51;75.52;98879.07;1734454;81;21617;-63
2021/08/06 00:24:05;;;;;;;6.90;2.15;;;;;;;15.43;75.45;98883.17;1736033;81;21075;-63
2021/08/06 00:26:32;;;;;;;5.58;1.92;;;;;;;15.30;75.70;98882.48;1734614;81;20970;-62
2021/08/06 00:28:58;;;;;;;5.77;2.53;;;;;;;15.17;75.68;98882.61;1736419;81;20887;-63
2021/08/06 00:31:25;;;;;;;2.73;1.77;;;;;;;15.07;76.02;98883.45;1734841;81;20954;-62
2021/08/06 00:33:51;;;;;;;4.63;2.00;;;;;;;14.98;76.29;98887.20;1739140;81;20910;-62
2021/08/06 00:36:18;;;;;;;5.47;1.73;;;;;;;14.92;76.43;98890.28;1738636;81;21031;-62
2021/08/06 00:38:44;;;;;;;8.67;3.17;;;;;;;14.84;76.54;98888.73;1741797;81;20929;-62
2021/08/06 00:41:15;;;;;;;3.55;1.77;;;;;;;14.79;77.14;98884.34;1736781;81;21389;-62
2021/08/06 00:43:41;;;;;;;4.37;1.90;;;;;;;14.73;77.75;98879.53;1734221;81;20887;-62
2021/08/06 00:46:12;;;;;;;4.00;1.93;;;;;;;14.67;77.16;98876.08;1739927;81;20907;-62
2021/08/06 00:48:36;;;;;;;2.77;1.55;;;;;;;14.64;77.39;98876.31;1733013;81;21091;-62
2021/08/06 00:51:03;;;;;;;2.97;1.87;;;;;;;14.62;77.69;98878.22;1735858;81;20947;-62
2021/08/06 00:53:30;;;;;;;2.95;1.67;;;;;;;14.59;77.25;98878.45;1737237;81;20875;-62
2021/08/06 00:55:56;;;;;;;4.07;1.80;;;;;;;14.58;77.71;98874.17;1742581;81;20950;-63
2021/08/06 00:58:23;;;;;;;3.87;1.77;;;;;;;14.55;77.40;98876.07;1749774;81;20951;-62
2021/08/06 01:00:50;;;;;;;4.13;2.13;;;;;;;14.52;77.40;98876.31;1749217;81;21026;-62
2021/08/06 01:03:25;;;;;;;3.65;1.95;;;;;;;14.52;77.38;98877.62;1750434;81;21258;-63
2021/08/06 01:06:12;;;;;;;2.45;1.57;;;;;;;14.50;77.36;98870.30;1751143;81;20965;-62
2021/08/06 01:08:49;;;;;;;3.65;1.82;;;;;;;14.47;77.40;98865.28;1751688;81;20958;-62
2021/08/06 01:11:21;;;;;;;4.47;1.95;;;;;;;14.45;77.44;98874.23;1748340;81;20924;-62
2021/08/06 01:13:59;;;;;;;3.10;2.02;;;;;;;14.42;77.50;98883.17;1748269;81;21044;-62
2021/08/06 01:16:30;;;;;;;5.87;1.98;;;;;;;14.40;77.55;98878.55;1747070;81;20927;-62
2021/08/06 01:19:20;;;;;;;4.60;2.05;;;;;;;14.37;77.65;98881.41;1751382;81;20931;-63
2021/08/06 01:21:51;;;;;;;3.08;2.35;;;;;;;14.35;77.65;98870.17;1747044;81;21555;-63
2021/08/06 01:24:22;;;;;;;3.92;2.12;;;;;;;14.32;77.72;98879.60;1745571;81;20947;-63
2021/08/06 01:26:49;;;;;;;5.92;2.00;;;;;;;14.29;77.75;98885.09;1747613;81;23318;-62
2021/08/06 01:29:16;;;;;;;5.10;2.08;;;;;;;14.27;77.82;98881.73;1745850;81;20878;-63
2021/08/06 01:31:43;;;;;;;4.15;1.67;;;;;;;14.23;77.88;98881.14;1749406;81;21473;-63
2021/08/06 01:34:21;;;;;;;5.92;1.98;;;;;;;14.23;77.84;98877.69;1752193;81;21472;-63
2021/08/06 01:36:48;;;;;;;2.58;1.82;;;;;;;14.20;77.95;98870.01;1752058;81;20910;-63
2021/08/06 01:39:16;;;;;;;4.70;2.02;;;;;;;14.19;78.03;98869.18;1750289;81;20879;-63
2021/08/06 01:42:00;;;;;;;2.80;1.77;;;;;;;14.12;77.86;98867.16;1716863;81;20887;-63
2021/08/06 01:44:37;;;;;;;4.60;1.67;;;;;;;14.04;77.94;98865.93;1750094;81;20910;-62
2021/08/06 01:47:26;;;;;;;3.52;2.02;;;;;;;14.01;78.53;98868.79;1752209;81;20932;-62
2021/08/06 01:49:57;;;;;;;3.42;1.95;;;;;;;14.02;78.35;98861.27;1751566;80;20922;-63
2021/08/06 01:52:28;;;;;;;2.62;2.00;;;;;;;14.01;78.38;98867.47;1732632;81;21050;-62
2021/08/06 01:54:59;;;;;;;3.42;1.77;;;;;;;13.98;78.33;98862.94;1737689;81;20902;-62
2021/08/06 01:57:24;;;;;;;3.98;2.10;;;;;;;13.98;78.59;98865.08;1743098;81;20976;-62
2021/08/06 01:59:51;;;;;;;4.45;1.87;;;;;;;13.99;78.36;98860.19;1749340;80;20896;-62
2021/08/06 02:02:18;;;;;;;3.95;1.37;;;;;;;13.92;78.23;98864.23;1749253;80;20934;-63
2021/08/06 02:04:45;;;;;;;2.70;1.87;;;;;;;13.80;78.02;98863.34;1746594;81;21698;-62
2021/08/06 02:07:17;;;;;;;3.12;1.25;;;;;;;13.76;78.38;98863.70;1749610;80;21418;-62
2021/08/06 02:09:44;;;;;;;5.05;1.80;;;;;;;13.70;78.13;98862.84;1743870;81;20959;-62
2021/08/06 02:12:15;;;;;;;8.15;1.77;;;;;;;13.60;78.23;98862.19;1748198;81;20870;-62
2021/08/06 02:14:43;;;;;;;3.83;2.20;;;;;;;13.57;78.17;98858.96;1740671;81;20970;-62
2021/08/06 02:17:10;;;;;;;2.17;1.50;;;;;;;13.48;78.40;98853.92;1746517;81;21088;-62
2021/08/06 02:19:38;;;;;;;6.85;2.25;;;;;;;13.47;78.33;98864.05;1743245;81;20953;-63
2021/08/06 02:22:07;;;;;;;12.33;2.52;;;;;;;13.43;78.40;98870.45;1746225;81;20870;-62
2021/08/06 02:24:34;;;;;;;2.60;1.80;;;;;;;13.33;78.30;98861.56;1747666;81;21457;-62
2021/08/06 02:27:04;;;;;;;2.98;2.12;;;;;;;13.28;78.42;98858.47;1733842;81;21528;-62
2021/08/06 02:29:31;;;;;;;2.77;2.10;;;;;;;13.25;78.47;98854.70;1732965;81;21049;-62
2021/08/06 02:31:59;;;;;;;7.40;2.52;;;;;;;13.10;78.61;98832.58;1736914;81;20906;-62
2021/08/06 02:34:27;;;;;;;3.27;1.80;;;;;;;13.12;78.78;98833.79;1733135;81;20923;-62
2021/08/06 02:36:54;;;;;;;4.10;2.60;;;;;;;13.24;78.85;98856.97;1734325;81;20954;-62
2021/08/06 02:39:28;;;;;;;4.08;2.80;;;;;;;13.25;78.78;98865.18;1733475;81;20916;-63
2021/08/06 02:42:00;;;;;;;3.95;2.77;;;;;;;13.19;78.79;98856.84;1735540;81;21011;-62
2021/08/06 02:44:27;;;;;;;3.08;2.15;;;;;;;13.18;78.91;98853.83;1742212;80;20873;-62
2021/08/06 02:46:54;;;;;;;2.10;1.85;;;;;;;13.13;78.91;98853.32;1736116;81;20887;-62
2021/08/06 02:49:22;;;;;;;3.70;3.02;;;;;;;13.11;78.97;98849.99;1738522;81;20959;-62
2021/08/06 02:51:48;;;;;;;;;;;;;;;13.12;79.05;98850.83;1739660;81;20915;-62
2021/08/06 02:54:15;;;;;;;7.27;2.10;;;;;;;13.11;79.29;98852.61;1736012;81;21881;-62
2021/08/06 02:56:41;;;;;;;3.10;2.07;;;;;;;13.12;79.35;98848.20;1736333;81;21114;-62
2021/08/06 02:59:08;;;;;;;3.27;2.40;;;;;;;13.16;79.41;98845.27;1734999;81;20899;-62
2021/08/06 03:01:35;;;;;;;5.45;1.72;;;;;;;13.19;79.33;98846.35;1739744;81;20979;-62
2021/08/06 03:04:01;;;;;;;2.40;1.80;;;;;;;13.20;79.40;98849.33;1708385;81;20962;-62
2021/08/06 03:06:28;;;;;;;2.40;1.80;;;;;;;13.23;79.44;98852.69;1734748;81;21783;-63
2021/08/06 03:08:55;;;;;;;4.72;2.00;;;;;;;13.29;79.59;98849.64;1738581;81;20969;-62
2021/08/06 03:11:22;;;;;;;;;;;;;;;13.36;79.73;98854.79;1739294;81;20939;-62
2021/08/06 03:13:49;;;;;;;4.95;1.77;;;;;;;13.44;79.76;98843.27;1759490;80;20132;-63
2021/08/06 03:16:15;;;;;;;3.30;1.75;;;;;;;13.53;79.71;98847.03;1757357;80;20962;-62
2021/08/06 03:18:42;;;;;;;3.00;2.03;;;;;;;13.60;79.67;98856.94;1757458;80;21731;-62
2021/08/06 03:21:09;;;;;;;3.13;1.80;;;;;;;13.69;79.74;98842.79;1738917;81;20992;-63
2021/08/06 03:23:36;;;;;;;3.72;1.85;;;;;;;13.70;79.73;98832.67;1742515;81;20987;-62
2021/08/06 03:26:02;;;;;;;4.07;1.67;;;;;;;13.87;79.61;98842.75;1738537;81;20946;-62
2021/08/06 03:28:29;;;;;;;2.77;1.50;;;;;;;13.95;79.62;98837.77;1740650;81;21221;-63
2021/08/06 03:30:56;;;;;;;3.17;1.42;;;;;;;14.06;79.69;98833.85;1737495;81;21601;-62
2021/08/06 03:33:22;;;;;;;6.10;1.30;;;;;;;14.19;79.75;98828.97;1745353;81;22302;-62
2021/08/06 03:35:49;;;;;;;5.50;1.60;;;;;;;14.32;79.70;98833.16;1740234;81;21452;-63
2021/08/06 03:38:19;;;;;;;3.30;1.62;;;;;;;14.45;79.70;98834.84;1738578;81;20930;-63
2021/08/06 03:40:46;;;;;;;2.62;1.40;;;;;;;14.58;79.68;98832.14;1735083;81;21009;-63
2021/08/06 03:43:13;;;;;;;2.92;1.75;;;;;;;14.71;79.60;98833.69;1735973;81;21079;-62
2021/08/06 03:45:40;;;;;;;4.35;1.85;;;;;;;14.81;79.50;98827.70;1736812;81;20907;-62
2021/08/06 03:48:07;;;;;;;4.50;1.50;;;;;;;14.88;79.36;98837.61;1739189;81;20963;-63
2021/08/06 03:50:34;;;;;;;6.53;1.35;;;;;;;14.92;79.24;98833.77;1711172;81;20954;-62
2021/08/06 03:53:01;;;;;;;3.05;1.40;;;;;;;14.99;79.28;98832.34;1739529;81;20943;-63
2021/08/06 03:55:27;;;;;;;4.65;1.25;;;;;;;15.18;79.50;98833.52;1740582;81;20972;-62
2021/08/06 03:57:57;;;;;;;2.47;1.10;;;;;;;15.55;79.64;98825.26;1731898;80;21456;-63
2021/08/06 04:00:27;;;;;;;1.77;1.10;;;;;;;16.07;79.57;98832.78;1732263;82;21907;-63
2021/08/06 04:02:54;;;;;;;2.22;1.30;;;;;;;16.56;79.23;98833.89;1729326;82;20947;-63
2021/08/06 04:05:21;;;;;;;3.70;1.40;;;;;;;17.13;79.13;98828.47;1732519;82;20921;-63
2021/08/06 04:07:49;;;;;;;3.62;1.50;;;;;;;17.86;79.01;98824.17;1731116;82;21050;-63
2021/08/06 04:10:19;;;;;;;2.37;1.37;;;;;;;18.39;77.95;98818.34;1727480;82;21451;-63
2021/08/06 04:12:46;;;;;;;2.77;1.22;;;;;;;18.79;76.54;98818.56;1745855;81;20932;-63
2021/08/06 04:15:14;;;;;;;1.75;1.37;;;;;;;19.21;76.90;98811.42;1728197;81;21440;-63
2021/08/06 04:17:41;;;;;;;2.40;1.12;;;;;;;19.65;76.91;98799.60;1745288;80;20933;-63
2021/08/06 04:20:09;;;;;;;3.20;1.37;;;;;;;20.02;76.31;98795.94;1701564;82;21146;-63
2021/08/06 04:22:36;;;;;;;5.00;1.27;;;;;;;20.44;76.52;98789.39;1731553;81;20875;-63
2021/08/06 04:25:03;;;;;;;1.77;0.93;;;;;;;20.87;75.95;98782.82;1734981;81;20871;-63
2021/08/06 04:27:30;;;;;;;2.22;1.10;;;;;;;21.19;75.37;98794.83;1732310;81;20871;-64
2021/08/06 04:29:56;;;;;;;1.72;0.90;;;;;;;21.31;72.96;98787.88;1736398;81;20923;-63
2021/08/06 04:32:23;;;;;;;2.62;1.27;;;;;;;21.54;74.42;98786.29;1733099;81;21874;-63
2021/08/06 04:34:49;;;;;;;5.37;1.22;;;;;;;21.83;74.25;98787.61;1736800;81;20914;-63
2021/08/06 04:37:16;;;;;;;2.27;1.25;;;;;;;22.33;73.15;98789.22;1739430;81;20934;-63
2021/08/06 04:39:43;;;;;;;2.95;1.10;;;;;;;22.71;72.86;98782.75;1735376;81;20903;-64
2021/08/06 04:42:09;;;;;;;3.15;1.05;;;;;;;22.98;72.66;98775.66;1731747;81;21003;-64
2021/08/06 04:44:36;;;;;;;1.80;0.80;;;;;;;23.33;72.00;98776.13;1735366;81;21669;-63
2021/08/06 04:47:04;;;;;;;1.50;0.75;;;;;;;23.32;71.35;98774.45;1731947;81;21431;-63
2021/08/06 04:49:31;;;;;;;4.55;1.05;;;;;;;22.96;69.66;98773.67;1729477;81;20909;-64
2021/08/06 04:51:58;;;;;;;3.00;1.05;;;;;;;22.91;70.91;98773.36;1730638;81;20893;-63
2021/08/06 04:54:24;;;;;;;2.52;0.90;;;;;;;23.09;70.64;98770.45;1734778;81;21534;-63
2021/08/06 04:56:51;;;;;;;;;;;;;;;22.79;69.38;98770.74;1740344;81;21454;-63
2021/08/06 04:59:18;;;;;;;;;;;;;;;22.41;68.71;98765.27;1742952;81;20098;-63
2021/08/06 05:01:45;;;;;;;0.85;0.70;;;;;;;21.94;68.62;98767.33;1746215;81;20106;-63
2021/08/06 05:04:11;;;;;;;2.80;0.93;;;;;;;21.32;67.62;98765.16;1748969;81;20883;-63
2021/08/06 05:06:38;;;;;;;3.60;0.82;;;;;;;20.78;68.36;98761.57;1749487;81;20954;-63
2021/08/06 05:09:05;;;;;;;2.08;1.00;;;;;;;20.38;66.96;98766.66;1747360;81;21046;-63
2021/08/06 05:11:31;;;;;;;2.60;0.90;;;;;;;20.06;68.45;98764.18;1741471;81;20946;-63
2021/08/06 05:13:58;;;;;;;0.88;0.60;;;;;;;19.95;68.27;98764.44;1752374;80;21011;-63
2021/08/06 05:16:25;;;;;;;2.47;0.98;;;;;;;19.74;67.79;98766.92;1749105;80;20877;-63
2021/08/06 05:18:51;;;;;;;1.37;0.70;;;;;;;19.53;67.40;98774.36;1745429;80;20930;-63
2021/08/06 05:21:18;;;;;;;1.35;0.70;;;;;;;19.29;67.22;98767.84;1763021;80;21055;-63
2021/08/06 05:23:44;;;;;;;1.70;0.90;;;;;;;19.08;67.19;98769.97;1737357;81;20930;-63
2021/08/06 05:26:11;;;;;;;7.95;0.78;;;;;;;18.84;67.09;98767.39;1764615;80;20931;-63
2021/08/06 05:28:37;;;;;;;1.67;0.70;;;;;;;18.78;67.01;98774.59;1761945;80;21943;-63
2021/08/06 05:31:04;;;;;;;3.27;1.00;;;;;;;18.70;67.01;98763.89;1761129;80;21585;-63
2021/08/06 05:33:31;;;;;;;1.87;0.60;;;;;;;18.66;66.84;98765.17;1759628;80;21529;-63
2021/08/06 05:35:58;;;;;;;4.90;0.90;;;;;;;18.55;66.48;98769.67;1762815;80;20872;-63
2021/08/06 05:38:24;;;;;;;5.30;0.70;;;;;;;18.38;66.45;98767.80;1761310;80;21018;-63
2021/08/06 05:40:51;;;;;;;1.17;0.70;;;;;;;18.30;66.49;98762.41;1763851;80;20903;-63
2021/08/06 05:43:17;;;;;;;2.30;0.80;;;;;;;18.26;66.27;98771.59;1761051;80;21037;-63
2021/08/06 05:45:44;;;;;;;9.33;1.00;;;;;;;18.26;66.28;98769.80;1759385;80;21230;-62
2021/08/06 05:48:13;;;;;;;1.37;0.47;;;;;;;18.29;66.03;98768.69;1765714;80;20892;-63
2021/08/06 05:50:41;;;;;;;2.85;0.57;;;;;;;18.30;65.75;98767.70;1766746;80;21567;-63
2021/08/06 05:53:08;;;;;;;3.45;0.85;;;;;;;18.31;65.93;98769.34;1763516;80;20920;-63
2021/08/06 05:55:34;;;;;;;4.72;0.85;;;;;;;18.38;65.80;98775.73;1768848;80;20924;-63
2021/08/06 05:58:01;;;;;;;5.62;0.95;;;;;;;18.52;65.86;98777.07;1771034;80;21880;-63
2021/08/06 06:00:28;;;;;;;0.88;0.55;;;;;;;18.60;65.61;98776.31;1754190;81;20918;-63
2021/08/06 06:02:55;;;;;;;3.87;0.70;;;;;;;18.59;65.02;98769.38;1742889;80;20946;-63
2021/08/06 06:05:21;;;;;;;3.55;0.85;;;;;;;18.61;65.07;98774.03;1747927;81;21437;-63
2021/08/06 06:07:49;;;;;;;1.85;0.78;;;;;;;18.62;65.02;98777.01;1772706;80;20926;-63
2021/08/06 06:10:21;;;;;;;1.98;0.57;;;;;;;18.66;64.79;98778.39;1771954;80;21187;-63
2021/08/06 06:12:50;;;;;;;3.83;0.95;;;;;;;18.72;64.64;98769.88;1761726;80;20960;-63
2021/08/06 06:15:17;;;;;;;3.98;0.88;;;;;;;18.71;64.29;98774.83;1768850;80;20899;-62
2021/08/06 06:17:44;;;;;;;3.77;0.80;;;;;;;18.66;64.29;98779.22;1765821;80;20970;-62
2021/08/06 06:20:12;;;;;;;3.75;0.78;;;;;;;18.69;64.56;98774.96;1748352;81;20918;-62
2021/08/06 06:22:38;;;;;;;2.05;0.75;;;;;;;18.76;64.22;98775.22;1757226;81;21626;-62
2021/08/06 06:25:06;;;;;;;0.70;0.50;;;;;;;18.83;64.30;98780.77;1756705;80;20942;-62
2021/08/06 06:27:33;;;;;;;5.70;0.98;;;;;;;18.78;63.53;98775.92;1756508;80;20982;-62
2021/08/06 06:30:00;;;;;;;4.10;1.42;;;;;;;18.81;63.90;98771.66;1755330;81;20910;-62
2021/08/06 06:32:26;;;;;;;2.35;0.85;;;;;;;18.82;63.65;98775.98;1752195;80;20902;-63
2021/08/06 06:34:53;;;;;;;6.40;1.00;;;;;;;18.90;63.44;98778.69;1736690;81;21454;-63
2021/08/06 06:37:20;;;;;;;0.75;0.53;;;;;;;18.82;62.23;98773.34;1739814;81;20959;-63
2021/08/06 06:39:46;;;;;;;1.80;0.70;;;;;;;18.81;62.58;98782.23;1752749;80;20891;-62
2021/08/06 06:42:14;;;;;;;1.80;0.60;;;;;;;18.85;62.15;98775.68;1776760;80;20930;-63
2021/08/06 06:44:41;;;;;;;0.88;0.78;;;;;;;18.95;60.40;98779.08;1755157;80;20887;-63
2021/08/06 06:47:07;;;;;;;2.52;0.80;;;;;;;18.97;61.96;98775.80;1761353;80;21048;-64
2021/08/06 06:49:34;;;;;;;1.40;0.80;;;;;;;19.04;61.70;98772.55;1776693;80;20913;-63
2021/08/06 06:52:03;;;;;;;3.83;0.90;;;;;;;19.10;61.87;98770.62;1742213;81;20959;-65
2021/08/06 06:54:29;;;;;;;1.47;0.68;;;;;;;19.11;61.11;98779.75;1771800;80;20943;-65
2021/08/06 06:56:56;;;;;;;1.57;0.90;;;;;;;18.96;60.44;98776.80;1772071;80;20906;-64
2021/08/06 06:59:23;;;;;;;2.25;0.80;;;;;;;19.05;60.69;98757.05;1768045;80;21453;-64
2021/08/06 07:01:49;;;;;;;9.48;1.00;;;;;;;19.16;60.82;98759.47;1753109;80;20934;-61
2021/08/06 07:04:16;;;;;;;3.72;0.70;;;;;;;19.11;58.54;98787.69;1754666;81;21487;-61
2021/08/06 07:06:45;;;;;;;0.80;0.50;;;;;;;18.90;59.29;98777.36;1760469;81;20905;-63
2021/08/06 07:09:12;;;;;;;4.67;0.93;;;;;;;18.90;59.11;98769.43;1755938;81;20976;-64
2021/08/06 07:11:38;;;;;;;4.22;1.05;;;;;;;18.86;58.45;98763.28;1755855;81;21059;-64
2021/08/06 07:14:05;;;;;;;2.95;0.80;;;;;;;18.86;59.50;98764.11;1752314;81;20942;-65
2021/08/06 07:16:32;;;;;;;2.33;0.70;;;;;;;18.95;59.48;98765.03;1751135;81;20953;-64
2021/08/06 07:18:58;;;;;;;1.07;0.70;;;;;;;18.99;58.94;98764.59;1750658;81;20892;-64
2021/08/06 07:21:48;;;;;;;2.90;0.78;;;;;;;18.84;57.07;98763.42;1753797;81;20912;-64
2021/08/06 07:24:13;;;;;;;1.62;0.53;;;;;;;18.64;57.41;98765.31;1740638;81;21881;-64
2021/08/06 07:26:39;;;;;;;3.77;0.68;;;;;;;18.56;57.94;98762.07;1756209;81;21614;-64
2021/08/06 07:29:06;;;;;;;1.92;0.62;;;;;;;18.54;57.54;98781.23;1750526;81;20914;-63
2021/08/06 07:31:33;;;;;;;1.82;0.80;;;;;;;18.55;57.88;98759.09;1746238;81;20957;-63
2021/08/06 07:34:00;;;;;;;2.35;0.70;;;;;;;18.64;58.15;98759.20;1749561;81;20967;-64
2021/08/06 07:36:26;;;;;;;5.72;0.70;;;;;;;18.65;56.02;98778.03;1753158;81;21758;-63
2021/08/06 07:38:53;;;;;;;1.17;0.50;;;;;;;18.52;57.32;98755.43;1754101;81;21551;-64
2021/08/06 07:41:19;;;;;;;6.60;0.60;;;;;;;18.46;56.48;98763.95;1750333;81;20933;-63
2021/08/06 07:43:46;;;;;;;10.03;0.77;;;;;;;18.32;56.05;98765.75;1749463;81;20942;-63
2021/08/06 07:46:12;;;;;;;3.15;0.62;;;;;;;18.19;56.49;98761.27;1752112;81;21252;-63
2021/08/06 07:48:39;;;;;;;0.98;0.70;;;;;;;18.15;57.23;98756.77;1745438;81;22088;-63
2021/08/06 07:51:06;;;;;;;6.42;0.75;;;;;;;18.18;57.09;98758.30;1767578;80;20951;-64
2021/08/06 07:53:32;;;;;;;2.22;0.80;;;;;;;18.13;56.94;98763.17;1749588;80;20860;-63
2021/08/06 07:55:59;;;;;;;1.12;0.60;;;;;;;18.18;57.16;98754.33;1754813;80;20914;-64
2021/08/06 07:58:26;;;;;;;6.80;0.90;;;;;;;18.18;56.99;98758.30;1733031;81;20958;-64
2021/08/06 08:00:52;;;;;;;1.75;0.40;;;;;;;18.22;57.30;98752.56;1762552;80;21230;-62
2021/08/06 08:03:19;;;;;;;1.62;0.50;;;;;;;18.22;55.79;98759.16;1749467;81;20941;-64
2021/08/06 08:05:46;;;;;;;2.02;0.50;;;;;;;18.24;56.55;98757.71;1735293;82;21406;-64
2021/08/06 08:08:12;;;;;;;3.40;0.70;;;;;;;18.14;56.85;98748.97;1734466;81;21457;-64
2021/08/06 08:10:39;;;;;;;4.33;0.62;;;;;;;18.22;56.44;98751.73;1740689;81;20926;-63
2021/08/06 08:13:06;;;;;;;3.27;0.60;;;;;;;18.26;56.58;98750.45;1742451;81;21011;-63
2021/08/06 08:15:32;;;;;;;2.08;0.75;;;;;;;18.37;56.76;98739.69;1746287;81;20922;-64
2021/08/06 08:17:59;;;;;;;1.05;0.55;;;;;;;18.35;56.56;98749.59;1737463;81;20911;-63
2021/08/06 08:20:26;;;;;;;2.50;0.60;;;;;;;18.42;56.61;98753.31;1763547;80;20887;-63
2021/08/06 08:22:53;;;;;;;1.57;0.62;;;;;;;18.49;56.77;98739.86;1742040;82;20884;-65
2021/08/06 08:25:19;;;;;;;2.33;0.60;;;;;;;18.45;55.08;98746.90;1735391;81;21058;-64
2021/08/06 08:27:46;;;;;;;2.22;0.62;;;;;;;18.33;55.37;98751.55;1741103;81;20958;-64
2021/08/06 08:30:13;;;;;;;0.93;0.53;;;;;;;18.23;55.28;98740.17;1743411;81;20895;-64
2021/08/06 08:32:39;;;;;;;1.12;0.45;;;;;;;18.23;55.54;98746.78;1736023;81;21493;-64
2021/08/06 08:35:07;;;;;;;1.62;0.80;;;;;;;18.34;56.08;98734.70;1740153;81;21238;-64
2021/08/06 08:37:34;;;;;;;0.93;0.40;;;;;;;18.39;56.03;98735.10;1740700;81;21000;-62
2021/08/06 08:40:03;;;;;;;1.70;0.80;;;;;;;18.24;54.39;98733.94;1742161;81;27418;-62
2021/08/06 08:42:36;;;;;;;3.72;0.50;;;;;;;18.19;54.68;98741.45;1732594;82;21450;-62
2021/08/06 08:45:06;;;;;;;0.55;0.55;;;;;;;18.28;55.28;98735.29;1714415;82;20879;-62
2021/08/06 08:47:37;;;;;;;3.50;0.70;;;;;;;18.29;54.32;98727.23;1736580;81;21025;-63
2021/08/06 08:50:07;;;;;;;1.87;0.70;;;;;;;18.26;54.42;98721.39;1712896;81;20973;-62
2021/08/06 08:52:35;;;;;;;0.93;0.65;;;;;;;18.22;55.07;98727.95;1735845;81;20920;-62
2021/08/06 08:55:09;;;;;;;0.95;0.50;;;;;;;18.34;55.24;98720.17;1736330;81;20887;-62
2021/08/06 08:57:42;;;;;;;1.98;0.60;;;;;;;18.36;54.63;98726.15;1741692;81;20930;-62
2021/08/06 09:00:13;;;;;;;2.17;0.62;;;;;;;18.25;54.84;98717.09;1745939;81;20977;-63
2021/08/06 09:02:40;;;;;;;1.60;0.60;;;;;;;18.36;54.69;98726.64;1745084;79;20961;-63
2021/08/06 09:05:16;;;;;;;1.98;0.60;;;;;;;18.32;54.37;98720.83;1747036;81;20864;-64
2021/08/06 09:07:46;;;;;;;1.30;0.53;;;;;;;18.31;53.98;98714.69;1748645;81;20902;-63
2021/08/06 09:10:27;;;;;;;1.50;0.72;;;;;;;18.31;53.88;98722.61;1749395;81;20894;-63
2021/08/06 09:13:00;;;;;;;2.80;0.70;;;;;;;18.27;54.26;98709.36;1749031;81;20918;-64
2021/08/06 09:15:52;;;;;;;2.20;0.53;;;;;;;18.37;54.53;98713.27;1751096;81;21031;-64
2021/08/06 09:18:31;;;;;;;2.77;0.90;;;;;;;18.42;53.58;98712.84;1749432;81;20907;-62
2021/08/06 09:21:07;;;;;;;1.27;0.47;;;;;;;18.61;54.59;98714.55;1745799;81;21521;-62
2021/08/06 09:23:59;;;;;;;2.35;0.70;;;;;;;18.53;52.94;98705.53;1723734;81;21032;-62
2021/08/06 09:26:43;;;;;;;1.50;0.75;;;;;;;18.30;53.45;98703.78;1753263;81;21473;-62
2021/08/06 09:29:21;;;;;;;2.35;0.62;;;;;;;18.38;53.83;98699.09;1747842;81;21463;-62
2021/08/06 09:31:56;;;;;;;0.82;0.50;;;;;;;18.49;53.71;98713.43;1750903;81;20924;-62
2021/08/06 09:34:35;;;;;;;2.47;0.55;;;;;;;18.42;53.53;98705.73;1748139;81;21472;-62
2021/08/06 09:37:21;;;;;;;1.67;0.57;;;;;;;18.37;53.26;98698.73;1755654;81;20974;-62
2021/08/06 09:39:51;;;;;;;1.65;0.40;;;;;;;18.53;52.85;98696.28;1753180;81;20888;-62
2021/08/06 09:42:32;;;;;;;1.07;0.50;;;;;;;18.52;52.84;98719.74;1722524;81;21903;-63
2021/08/06 09:45:06;;;;;;;1.87;0.85;;;;;;;18.38;52.53;98695.63;1751192;81;20942;-63
2021/08/06 09:47:37;;;;;;;4.05;0.62;;;;;;;18.36;51.61;98695.76;1748220;81;21448;-62
2021/08/06 09:50:15;;;;;;;2.02;0.62;;;;;;;18.27;52.58;98694.00;1745185;81;21580;-62
2021/08/06 09:52:46;;;;;;;5.40;0.80;;;;;;;18.46;52.36;98685.98;1753556;81;20929;-62
2021/08/06 09:55:27;;;;;;;1.80;0.80;;;;;;;18.58;52.88;98696.34;1746991;81;21061;-62
2021/08/06 09:57:55;;;;;;;1.57;0.65;;;;;;;18.73;53.10;98681.63;1766583;79;20927;-62
2021/08/06 10:00:24;;;;;;;1.57;0.62;;;;;;;18.54;52.12;98712.50;1763336;80;21501;-62
2021/08/06 10:02:55;;;;;;;1.30;0.50;;;;;;;18.53;52.26;98691.49;1759463;80;48551;-62
2021/08/06 10:05:26;;;;;;;4.45;0.90;;;;;;;18.50;52.58;98689.97;1762921;80;20879;-63
2021/08/06 10:07:57;;;;;;;3.40;0.85;;;;;;;18.52;52.45;98697.77;1768702;79;21089;-62
2021/08/06 10:10:32;;;;;;;2.65;0.68;;;;;;;18.39;52.00;98694.64;1761934;80;20883;-62
2021/08/06 10:13:01;;;;;;;1.95;0.60;;;;;;;18.28;52.45;98683.27;1748142;80;20945;-62
2021/08/06 10:15:30;;;;;;;1.60;0.57;;;;;;;18.48;52.75;98699.03;1744786;80;21057;-62
2021/08/06 10:18:00;;;;;;;2.92;0.70;;;;;;;18.49;52.26;98696.25;1740922;81;20935;-63
2021/08/06 10:20:29;;;;;;;2.15;0.82;;;;;;;18.36;52.73;98687.83;1742850;80;20981;-62
2021/08/06 10:22:58;;;;;;;3.40;0.80;;;;;;;18.35;52.79;98694.11;1747230;80;20949;-63
2021/08/06 10:25:29;;;;;;;2.77;0.82;;;;;;;18.42;53.05;98693.84;1746566;80;20907;-62
2021/08/06 10:27:58;;;;;;;2.05;0.70;;;;;;;18.25;53.13;98691.98;1770930;80;21500;-64
2021/08/06 10:30:35;;;;;;;1.42;0.60;;;;;;;18.22;53.44;98685.68;1766772;80;20939;-64
2021/08/06 10:33:28;;;;;;;2.45;0.90;;;;;;;18.43;53.55;98680.98;1762981;80;21041;-63
2021/08/06 10:36:04;;;;;;;1.75;0.70;;;;;;;18.47;53.51;98684.98;1765776;80;20969;-63
2021/08/06 10:38:54;;;;;;;2.33;0.70;;;;;;;18.33;53.77;98688.13;1735564;81;20975;-64
2021/08/06 10:41:29;;;;;;;1.40;0.70;;;;;;;18.16;54.27;98698.16;1764449;80;21105;-64
2021/08/06 10:44:05;;;;;;;2.08;0.60;;;;;;;18.11;54.51;98683.56;1740125;80;21458;-65
2021/08/06 10:46:59;;;;;;;3.98;0.78;;;;;;;18.03;55.05;98687.41;1724255;80;21035;-64
2021/08/06 10:49:30;;;;;;;3.65;0.90;;;;;;;17.99;54.90;98688.70;1716804;80;20989;-64
2021/08/06 10:52:20;;;;;;;2.25;0.82;;;;;;;17.79;55.72;98689.75;1739519;80;20894;-65
2021/08/06 10:54:50;;;;;;;1.20;0.75;;;;;;;17.79;55.92;98684.47;1767196;80;20895;-65
2021/08/06 10:57:22;;;;;;;1.92;0.90;;;;;;;17.80;55.86;98704.59;1768741;80;20877;-65
2021/08/06 10:59:50;;;;;;;2.22;0.80;;;;;;;17.67;56.46;98691.20;1774878;79;21120;-64
2021/08/06 11:02:38;;;;;;;2.10;0.80;;;;;;;17.60;57.15;98687.95;1753008;79;20869;-64
2021/08/06 11:05:37;;;;;;;5.00;0.90;;;;;;;17.51;56.54;98690.95;1778818;79;20914;-64
2021/08/06 11:08:29;;;;;;;2.50;1.07;;;;;;;17.55;56.72;98689.68;1756232;80;20932;-64
2021/08/06 11:10:56;;;;;;;2.92;0.98;;;;;;;17.69;56.65;98689.72;1772452;79;20871;-64
2021/08/06 11:13:51;;;;;;;3.15;1.07;;;;;;;17.58;57.41;98692.03;1753503;80;21201;-63
2021/08/06 11:16:19;;;;;;;2.47;0.80;;;;;;;17.56;57.10;98707.20;1773963;79;20926;-64
2021/08/06 11:18:50;;;;;;;1.40;0.72;;;;;;;17.49;57.22;98678.38;1761364;79;20906;-64
2021/08/06 11:21:26;;;;;;;1.50;0.75;;;;;;;17.46;57.57;98694.50;1757004;80;20936;-63
2021/08/06 11:24:00;;;;;;;1.72;0.80;;;;;;;17.39;57.72;98697.34;1722740;81;20907;-63
2021/08/06 11:26:27;;;;;;;2.45;1.02;;;;;;;17.48;57.62;98703.11;1773468;79;21896;-64
2021/08/06 11:28:56;;;;;;;2.00;0.85;;;;;;;17.47;57.98;98693.52;1775339;79;21432;-63
2021/08/06 11:31:24;;;;;;;1.15;0.60;;;;;;;17.46;57.82;98701.09;1779032;79;20891;-63
2021/08/06 11:34:04;;;;;;;2.40;1.22;;;;;;;17.52;57.90;98691.28;1780301;79;20939;-63
2021/08/06 11:36:31;;;;;;;1.57;0.90;;;;;;;17.58;57.87;98693.36;1770879;80;20902;-63
2021/08/06 11:39:03;;;;;;;4.37;1.25;;;;;;;17.49;57.98;98688.11;1773323;79;21210;-63
2021/08/06 11:41:29;;;;;;;1.52;0.95;;;;;;;17.55;58.76;98689.68;1746379;81;20906;-64
2021/08/06 11:43:58;;;;;;;1.80;0.65;;;;;;;17.56;58.15;98684.77;1772841;79;20916;-62
2021/08/06 11:46:25;;;;;;;3.30;0.95;;;;;;;17.55;58.26;98689.68;1750336;79;20928;-62